sensor_id;sensor_type;location;lat;lon;timestamp;pressure;altitude;pressure_sealevel;temperature;humidity
72855;BME280;60991;51.278;22.550;2022-12-07T00:00:43;98461.78;;;2.46;84.37
72855;BME280;60991;51.278;22.550;2022-12-07T00:02:13;98461.38;;;2.49;84.38
72855;BME280;60991;51.278;22.550;2022-12-07T00:03:45;98458.28;;;2.65;84.38
72855;BME280;60991;51.278;22.550;2022-12-07T00:05:16;98456.47;;;2.65;83.71
72855;BME280;60991;51.278;22.550;2022-12-07T00:06:50;98455.94;;;2.57;84.34
72855;BME280;60991;51.278;22.550;2022-12-07T00:08:21;98455.31;;;2.55;84.92
72855;BME280;60991;51.278;22.550;2022-12-07T00:09:54;98457.16;;;2.48;85.11
72855;BME280;60991;51.278;22.550;2022-12-07T00:11:25;98453.13;;;2.45;85.06
72855;BME280;60991;51.278;22.550;2022-12-07T00:12:55;98446.47;;;2.56;84.65
72855;BME280;60991;51.278;22.550;2022-12-07T00:14:25;98447.66;;;2.60;84.00
72855;BME280;60991;51.278;22.550;2022-12-07T00:15:55;98444.78;;;2.68;83.90
72855;BME280;60991;51.278;22.550;2022-12-07T00:17:26;98447.19;;;2.69;84.26
72855;BME280;60991;51.278;22.550;2022-12-07T00:18:56;98451.22;;;2.72;84.12
72855;BME280;60991;51.278;22.550;2022-12-07T00:20:27;98450.38;;;2.78;83.93
72855;BME280;60991;51.278;22.550;2022-12-07T00:21:57;98449.59;;;2.71;84.37
72855;BME280;60991;51.278;22.550;2022-12-07T00:23:30;98445.28;;;2.83;83.92
72855;BME280;60991;51.278;22.550;2022-12-07T00:25:00;98437.47;;;2.76;84.06
72855;BME280;60991;51.278;22.550;2022-12-07T00:26:32;98443.34;;;2.72;84.44
72855;BME280;60991;51.278;22.550;2022-12-07T00:28:03;98440.13;;;2.70;84.56
72855;BME280;60991;51.278;22.550;2022-12-07T00:29:33;98449.81;;;2.69;84.74
72855;BME280;60991;51.278;22.550;2022-12-07T00:31:12;98438.69;;;2.74;84.06
72855;BME280;60991;51.278;22.550;2022-12-07T00:32:42;98440.97;;;2.64;84.78
72855;BME280;60991;51.278;22.550;2022-12-07T00:34:16;98442.97;;;2.68;84.22
72855;BME280;60991;51.278;22.550;2022-12-07T00:35:55;98445.16;;;2.71;84.55
72855;BME280;60991;51.278;22.550;2022-12-07T00:37:25;98444.34;;;2.71;84.30
72855;BME280;60991;51.278;22.550;2022-12-07T00:38:58;98443.56;;;2.70;84.63
72855;BME280;60991;51.278;22.550;2022-12-07T00:40:28;98445.41;;;2.63;84.80
72855;BME280;60991;51.278;22.550;2022-12-07T00:41:59;98442.56;;;2.65;85.05
72855;BME280;60991;51.278;22.550;2022-12-07T00:43:29;98446.41;;;2.62;84.94
72855;BME280;60991;51.278;22.550;2022-12-07T00:45:00;98444.78;;;2.61;85.17
72855;BME280;60991;51.278;22.550;2022-12-07T00:46:30;98449.47;;;2.59;85.36
72855;BME280;60991;51.278;22.550;2022-12-07T00:48:00;98442.41;;;2.60;85.54
72855;BME280;60991;51.278;22.550;2022-12-07T00:49:31;98445.19;;;2.65;85.47
72855;BME280;60991;51.278;22.550;2022-12-07T00:51:01;98446.97;;;2.71;84.83
72855;BME280;60991;51.278;22.550;2022-12-07T00:52:32;98443.97;;;2.67;85.14
72855;BME280;60991;51.278;22.550;2022-12-07T00:54:02;98446.78;;;2.66;85.22
72855;BME280;60991;51.278;22.550;2022-12-07T00:55:33;98443.56;;;2.70;85.39
72855;BME280;60991;51.278;22.550;2022-12-07T00:57:04;98449.56;;;2.77;84.80
72855;BME280;60991;51.278;22.550;2022-12-07T00:58:34;98442.34;;;2.73;84.47
72855;BME280;60991;51.278;22.550;2022-12-07T01:00:05;98456.03;;;2.75;85.25
72855;BME280;60991;51.278;22.550;2022-12-07T01:01:38;98445.28;;;2.83;84.31
72855;BME280;60991;51.278;22.550;2022-12-07T01:03:11;98448.41;;;2.98;83.51
72855;BME280;60991;51.278;22.550;2022-12-07T01:04:41;98445.16;;;3.03;83.70
72855;BME280;60991;51.278;22.550;2022-12-07T01:06:17;98445.06;;;3.16;83.70
72855;BME280;60991;51.278;22.550;2022-12-07T01:07:47;98440.31;;;3.06;83.66
72855;BME280;60991;51.278;22.550;2022-12-07T01:09:18;98446.56;;;3.05;83.27
72855;BME280;60991;51.278;22.550;2022-12-07T01:10:49;98435.19;;;3.18;82.90
72855;BME280;60991;51.278;22.550;2022-12-07T01:12:19;98436.56;;;3.21;83.34
72855;BME280;60991;51.278;22.550;2022-12-07T01:13:51;98434.63;;;3.34;82.13
72855;BME280;60991;51.278;22.550;2022-12-07T01:15:22;98436.41;;;3.40;82.27
72855;BME280;60991;51.278;22.550;2022-12-07T01:16:52;98436.16;;;3.48;82.12
72855;BME280;60991;51.278;22.550;2022-12-07T01:18:30;98433.91;;;3.52;81.46
72855;BME280;60991;51.278;22.550;2022-12-07T01:20:05;98431.97;;;3.41;81.76
72855;BME280;60991;51.278;22.550;2022-12-07T01:21:35;98438.56;;;3.50;81.50
72855;BME280;60991;51.278;22.550;2022-12-07T01:23:06;98434.38;;;3.42;81.93
72855;BME280;60991;51.278;22.550;2022-12-07T01:24:36;98434.97;;;3.44;81.38
72855;BME280;60991;51.278;22.550;2022-12-07T01:26:10;98431.13;;;3.47;81.52
72855;BME280;60991;51.278;22.550;2022-12-07T01:27:41;98431.59;;;3.37;81.69
72855;BME280;60991;51.278;22.550;2022-12-07T01:29:11;98424.91;;;3.17;82.70
72855;BME280;60991;51.278;22.550;2022-12-07T01:30:41;98425.69;;;3.17;82.88
72855;BME280;60991;51.278;22.550;2022-12-07T01:32:12;98430.53;;;3.20;82.84
72855;BME280;60991;51.278;22.550;2022-12-07T01:33:47;98427.75;;;3.15;83.30
72855;BME280;60991;51.278;22.550;2022-12-07T01:35:18;98426.41;;;3.06;83.51
72855;BME280;60991;51.278;22.550;2022-12-07T01:36:48;98419.34;;;3.06;83.81
72855;BME280;60991;51.278;22.550;2022-12-07T01:38:18;98427.69;;;3.22;82.93
72855;BME280;60991;51.278;22.550;2022-12-07T01:39:50;98426.72;;;3.16;82.88
72855;BME280;60991;51.278;22.550;2022-12-07T01:41:20;98425.16;;;3.08;83.13
72855;BME280;60991;51.278;22.550;2022-12-07T01:42:51;98423.19;;;3.04;83.57
72855;BME280;60991;51.278;22.550;2022-12-07T01:44:29;98428.19;;;3.12;83.25
72855;BME280;60991;51.278;22.550;2022-12-07T01:46:00;98425.69;;;3.17;83.19
72855;BME280;60991;51.278;22.550;2022-12-07T01:47:31;98429.78;;;3.13;83.74
72855;BME280;60991;51.278;22.550;2022-12-07T01:49:04;98430.22;;;3.10;83.84
72855;BME280;60991;51.278;22.550;2022-12-07T01:50:37;98426.72;;;3.16;83.59
72855;BME280;60991;51.278;22.550;2022-12-07T01:52:29;98424.53;;;3.13;83.71
72855;BME280;60991;51.278;22.550;2022-12-07T01:54:01;98423.94;;;3.11;83.86
72855;BME280;60991;51.278;22.550;2022-12-07T01:55:32;98424.84;;;3.23;83.47
72855;BME280;60991;51.278;22.550;2022-12-07T01:57:04;98422.13;;;3.36;83.21
72855;BME280;60991;51.278;22.550;2022-12-07T01:58:36;98425.72;;;3.42;82.64
72855;BME280;60991;51.278;22.550;2022-12-07T02:00:09;98423.50;;;3.39;82.49
72855;BME280;60991;51.278;22.550;2022-12-07T02:01:39;98413.91;;;3.33;82.82
72855;BME280;60991;51.278;22.550;2022-12-07T02:03:22;98420.38;;;3.30;82.72
72855;BME280;60991;51.278;22.550;2022-12-07T02:04:56;98417.31;;;3.33;82.62
72855;BME280;60991;51.278;22.550;2022-12-07T02:06:27;98428.34;;;3.42;81.98
72855;BME280;60991;51.278;22.550;2022-12-07T02:07:57;98418.38;;;3.26;82.92
72855;BME280;60991;51.278;22.550;2022-12-07T02:09:29;98415.50;;;3.09;83.09
72855;BME280;60991;51.278;22.550;2022-12-07T02:11:00;98419.34;;;3.06;83.29
72855;BME280;60991;51.278;22.550;2022-12-07T02:12:31;98418.50;;;3.12;83.07
72855;BME280;60991;51.278;22.550;2022-12-07T02:14:01;98410.47;;;3.07;83.39
72855;BME280;60991;51.278;22.550;2022-12-07T02:17:55;98417.72;;;3.05;83.41
72855;BME280;60991;51.278;22.550;2022-12-07T02:21:45;98423.19;;;3.04;83.76
72855;BME280;60991;51.278;22.550;2022-12-07T02:30:49;98419.97;;;3.02;82.79
72855;BME280;60991;51.278;22.550;2022-12-07T02:32:30;98406.84;;;3.02;82.91
72855;BME280;60991;51.278;22.550;2022-12-07T02:34:11;98411.97;;;2.97;82.94
72855;BME280;60991;51.278;22.550;2022-12-07T02:36:04;98418.41;;;2.94;83.43
72855;BME280;60991;51.278;22.550;2022-12-07T02:37:46;98414.41;;;2.92;83.34
72855;BME280;60991;51.278;22.550;2022-12-07T02:39:53;98408.25;;;3.04;83.48
72855;BME280;60991;51.278;22.550;2022-12-07T02:41:33;98414.38;;;3.23;82.63
72855;BME280;60991;51.278;22.550;2022-12-07T02:43:25;98412.50;;;3.30;82.13
72855;BME280;60991;51.278;22.550;2022-12-07T02:44:58;98412.22;;;3.38;81.79
72855;BME280;60991;51.278;22.550;2022-12-07T02:46:42;98406.72;;;3.22;82.65
72855;BME280;60991;51.278;22.550;2022-12-07T02:48:15;98411.44;;;3.13;82.69
72855;BME280;60991;51.278;22.550;2022-12-07T02:49:47;98414.72;;;3.02;83.31
72855;BME280;60991;51.278;22.550;2022-12-07T02:51:19;98407.50;;;2.97;83.25
72855;BME280;60991;51.278;22.550;2022-12-07T02:52:49;98409.09;;;2.98;83.38
72855;BME280;60991;51.278;22.550;2022-12-07T02:54:20;98398.84;;;2.97;83.86
72855;BME280;60991;51.278;22.550;2022-12-07T02:55:51;98406.97;;;2.89;83.75
72855;BME280;60991;51.278;22.550;2022-12-07T03:01:25;98409.00;;;2.80;84.11
72855;BME280;60991;51.278;22.550;2022-12-07T03:03:16;98407.84;;;2.76;83.63
72855;BME280;60991;51.278;22.550;2022-12-07T03:06:42;98392.72;;;2.78;84.05
72855;BME280;60991;51.278;22.550;2022-12-07T03:08:33;98396.13;;;2.78;83.61
72855;BME280;60991;51.278;22.550;2022-12-07T03:10:21;98402.81;;;2.74;83.76
72855;BME280;60991;51.278;22.550;2022-12-07T03:12:01;98400.41;;;2.73;84.07
72855;BME280;60991;51.278;22.550;2022-12-07T03:15:10;98402.44;;;2.71;84.08
72855;BME280;60991;51.278;22.550;2022-12-07T03:16:50;98399.41;;;2.74;84.09
72855;BME280;60991;51.278;22.550;2022-12-07T03:18:25;98412.28;;;2.75;84.22
72855;BME280;60991;51.278;22.550;2022-12-07T03:20:00;98401.22;;;2.73;83.70
72855;BME280;60991;51.278;22.550;2022-12-07T03:21:39;98397.16;;;2.77;83.58
72855;BME280;60991;51.278;22.550;2022-12-07T03:23:12;98393.50;;;2.78;83.67
72855;BME280;60991;51.278;22.550;2022-12-07T03:24:49;98398.81;;;2.72;83.75
72855;BME280;60991;51.278;22.550;2022-12-07T03:26:24;98396.63;;;2.62;83.86
72855;BME280;60991;51.278;22.550;2022-12-07T03:28:03;98396.84;;;2.61;84.18
72855;BME280;60991;51.278;22.550;2022-12-07T03:29:40;98399.09;;;2.57;83.90
72855;BME280;60991;51.278;22.550;2022-12-07T03:33:06;98394.47;;;2.53;83.98
72855;BME280;60991;51.278;22.550;2022-12-07T03:36:37;98386.59;;;2.59;83.71
72855;BME280;60991;51.278;22.550;2022-12-07T03:41:44;98384.44;;;2.43;83.79
72855;BME280;60991;51.278;22.550;2022-12-07T03:43:17;98383.00;;;2.47;83.83
72855;BME280;60991;51.278;22.550;2022-12-07T03:44:48;98381.19;;;2.48;83.94
72855;BME280;60991;51.278;22.550;2022-12-07T03:48:40;98381.38;;;2.53;83.48
72855;BME280;60991;51.278;22.550;2022-12-07T03:50:25;98381.97;;;2.55;82.69
72855;BME280;60991;51.278;22.550;2022-12-07T03:53:54;98376.13;;;2.59;82.61
72855;BME280;60991;51.278;22.550;2022-12-07T03:55:31;98383.41;;;2.51;83.07
72855;BME280;60991;51.278;22.550;2022-12-07T03:57:04;98370.78;;;2.41;82.66
72855;BME280;60991;51.278;22.550;2022-12-07T03:58:36;98379.41;;;2.41;82.53
72855;BME280;60991;51.278;22.550;2022-12-07T04:00:08;98379.19;;;2.43;82.59
72855;BME280;60991;51.278;22.550;2022-12-07T04:01:40;98371.00;;;2.33;83.06
72855;BME280;60991;51.278;22.550;2022-12-07T04:03:20;98368.47;;;2.20;83.40
72855;BME280;60991;51.278;22.550;2022-12-07T04:04:50;98369.09;;;2.15;83.48
72855;BME280;60991;51.278;22.550;2022-12-07T04:06:20;98376.72;;;2.17;83.34
72855;BME280;60991;51.278;22.550;2022-12-07T04:07:51;98373.50;;;2.15;83.78
72855;BME280;60991;51.278;22.550;2022-12-07T04:09:24;98370.50;;;2.11;83.43
72855;BME280;60991;51.278;22.550;2022-12-07T04:10:54;98369.69;;;2.17;83.35
72855;BME280;60991;51.278;22.550;2022-12-07T04:12:25;98369.50;;;2.12;83.44
72855;BME280;60991;51.278;22.550;2022-12-07T04:13:55;98365.28;;;2.04;83.67
72855;BME280;60991;51.278;22.550;2022-12-07T04:15:26;98370.16;;;2.01;83.84
72855;BME280;60991;51.278;22.550;2022-12-07T04:16:57;98368.69;;;2.05;83.56
72855;BME280;60991;51.278;22.550;2022-12-07T04:18:28;98364.91;;;2.01;83.23
72855;BME280;60991;51.278;22.550;2022-12-07T04:19:58;98358.47;;;1.97;83.21
72855;BME280;60991;51.278;22.550;2022-12-07T04:21:29;98366.97;;;1.86;83.79
72855;BME280;60991;51.278;22.550;2022-12-07T04:22:59;98361.56;;;1.81;84.55
72855;BME280;60991;51.278;22.550;2022-12-07T04:24:29;98357.34;;;1.80;84.27
72855;BME280;60991;51.278;22.550;2022-12-07T04:26:00;98365.59;;;1.77;84.33
72855;BME280;60991;51.278;22.550;2022-12-07T04:27:33;98359.94;;;1.80;84.34
72855;BME280;60991;51.278;22.550;2022-12-07T04:29:03;98365.78;;;1.82;84.44
72855;BME280;60991;51.278;22.550;2022-12-07T04:30:34;98359.94;;;1.80;84.17
72855;BME280;60991;51.278;22.550;2022-12-07T04:32:04;98365.59;;;1.77;84.37
72855;BME280;60991;51.278;22.550;2022-12-07T04:33:35;98359.75;;;1.74;85.06
72855;BME280;60991;51.278;22.550;2022-12-07T04:35:05;98365.19;;;1.73;84.94
72855;BME280;60991;51.278;22.550;2022-12-07T04:36:36;98368.81;;;1.72;84.73
72855;BME280;60991;51.278;22.550;2022-12-07T04:38:06;98369.63;;;1.79;84.16
72855;BME280;60991;51.278;22.550;2022-12-07T04:39:36;98366.00;;;1.80;84.27
72855;BME280;60991;51.278;22.550;2022-12-07T04:41:07;98370.00;;;1.83;84.59
72855;BME280;60991;51.278;22.550;2022-12-07T04:42:38;98360.34;;;1.83;84.62
72855;BME280;60991;51.278;22.550;2022-12-07T04:44:13;98358.16;;;1.80;83.80
72855;BME280;60991;51.278;22.550;2022-12-07T04:45:47;98360.97;;;1.79;84.37
72855;BME280;60991;51.278;22.550;2022-12-07T04:47:18;98360.75;;;1.80;83.98
72855;BME280;60991;51.278;22.550;2022-12-07T04:48:48;98354.53;;;1.74;84.53
72855;BME280;60991;51.278;22.550;2022-12-07T04:50:19;98356.72;;;1.78;84.69
72855;BME280;60991;51.278;22.550;2022-12-07T04:51:52;98358.16;;;1.80;84.04
72855;BME280;60991;51.278;22.550;2022-12-07T04:53:22;98352.09;;;1.80;83.77
72855;BME280;60991;51.278;22.550;2022-12-07T04:54:52;98364.59;;;1.78;84.07
72855;BME280;60991;51.278;22.550;2022-12-07T04:56:23;98354.94;;;1.71;84.01
72855;BME280;60991;51.278;22.550;2022-12-07T04:57:54;98352.72;;;1.68;84.02
72855;BME280;60991;51.278;22.550;2022-12-07T04:59:24;98354.78;;;1.66;85.15
72855;BME280;60991;51.278;22.550;2022-12-07T05:00:55;98355.56;;;1.67;84.39
72855;BME280;60991;51.278;22.550;2022-12-07T05:02:25;98358.97;;;1.67;84.17
72855;BME280;60991;51.278;22.550;2022-12-07T05:03:55;98351.13;;;1.67;84.73
72855;BME280;60991;51.278;22.550;2022-12-07T05:05:26;98355.97;;;1.64;84.93
72855;BME280;60991;51.278;22.550;2022-12-07T05:06:56;98356.97;;;1.63;84.54
72855;BME280;60991;51.278;22.550;2022-12-07T05:08:26;98351.56;;;1.58;84.76
72855;BME280;60991;51.278;22.550;2022-12-07T05:09:56;98357.19;;;1.61;84.97
72855;BME280;60991;51.278;22.550;2022-12-07T05:11:27;98347.53;;;1.62;84.66
72855;BME280;60991;51.278;22.550;2022-12-07T05:12:57;98348.72;;;1.66;84.33
72855;BME280;60991;51.278;22.550;2022-12-07T05:14:27;98356.34;;;1.67;84.67
72855;BME280;60991;51.278;22.550;2022-12-07T05:15:57;98354.53;;;1.68;84.36
72855;BME280;60991;51.278;22.550;2022-12-07T05:17:28;98344.88;;;1.68;84.53
72855;BME280;60991;51.278;22.550;2022-12-07T05:18:58;98347.28;;;1.70;84.36
72855;BME280;60991;51.278;22.550;2022-12-07T05:20:28;98341.69;;;1.66;84.75
72855;BME280;60991;51.278;22.550;2022-12-07T05:22:01;98343.72;;;1.64;85.13
72855;BME280;60991;51.278;22.550;2022-12-07T05:23:31;98345.91;;;1.61;84.89
72855;BME280;60991;51.278;22.550;2022-12-07T05:25:01;98340.69;;;1.61;84.92
72855;BME280;60991;51.278;22.550;2022-12-07T05:26:32;98353.53;;;1.76;84.93
72855;BME280;60991;51.278;22.550;2022-12-07T05:28:03;98341.03;;;1.78;84.93
72855;BME280;60991;51.278;22.550;2022-12-07T05:29:33;98347.28;;;1.77;85.13
72855;BME280;60991;51.278;22.550;2022-12-07T05:31:04;98337.22;;;1.80;84.38
72855;BME280;60991;51.278;22.550;2022-12-07T05:32:34;98339.03;;;1.80;84.37
72855;BME280;60991;51.278;22.550;2022-12-07T05:34:04;98339.22;;;1.78;84.67
72855;BME280;60991;51.278;22.550;2022-12-07T05:35:34;98338.22;;;1.79;84.60
72855;BME280;60991;51.278;22.550;2022-12-07T05:37:05;98346.47;;;1.76;84.66
72855;BME280;60991;51.278;22.550;2022-12-07T05:38:35;98343.47;;;1.72;84.31
72855;BME280;60991;51.278;22.550;2022-12-07T05:40:09;98348.50;;;1.67;85.07
72855;BME280;60991;51.278;22.550;2022-12-07T05:41:39;98356.53;;;1.72;84.45
72855;BME280;60991;51.278;22.550;2022-12-07T05:43:10;98345.69;;;1.69;85.39
72855;BME280;60991;51.278;22.550;2022-12-07T05:44:42;98346.09;;;1.72;84.49
72855;BME280;60991;51.278;22.550;2022-12-07T05:46:13;98349.91;;;1.77;84.24
72855;BME280;60991;51.278;22.550;2022-12-07T05:47:43;98346.28;;;1.78;85.06
72855;BME280;60991;51.278;22.550;2022-12-07T05:49:14;98349.28;;;1.74;84.39
72855;BME280;60991;51.278;22.550;2022-12-07T05:50:47;98350.91;;;1.76;84.91
72855;BME280;60991;51.278;22.550;2022-12-07T05:52:18;98351.72;;;1.76;84.98
72855;BME280;60991;51.278;22.550;2022-12-07T05:53:48;98347.47;;;1.75;85.32
72855;BME280;60991;51.278;22.550;2022-12-07T05:55:21;98345.88;;;1.81;84.54
72855;BME280;60991;51.278;22.550;2022-12-07T05:56:51;98349.69;;;1.78;85.19
72855;BME280;60991;51.278;22.550;2022-12-07T05:58:22;98352.91;;;1.80;84.80
72855;BME280;60991;51.278;22.550;2022-12-07T05:59:52;98356.53;;;1.79;85.20
72855;BME280;60991;51.278;22.550;2022-12-07T06:01:28;98353.72;;;1.81;84.52
72855;BME280;60991;51.278;22.550;2022-12-07T06:03:01;98349.28;;;1.81;84.94
72855;BME280;60991;51.278;22.550;2022-12-07T06:04:34;98357.75;;;1.77;84.62
72855;BME280;60991;51.278;22.550;2022-12-07T06:06:05;98354.72;;;1.73;85.15
72855;BME280;60991;51.278;22.550;2022-12-07T06:07:35;98349.69;;;1.71;85.09
72855;BME280;60991;51.278;22.550;2022-12-07T06:09:05;98360.16;;;1.71;85.18
72855;BME280;60991;51.278;22.550;2022-12-07T06:10:42;98351.50;;;1.71;84.92
72855;BME280;60991;51.278;22.550;2022-12-07T06:12:12;98346.28;;;1.71;85.55
72855;BME280;60991;51.278;22.550;2022-12-07T06:13:43;98350.50;;;1.72;85.29
72855;BME280;60991;51.278;22.550;2022-12-07T06:15:13;98356.34;;;1.74;85.39
72855;BME280;60991;51.278;22.550;2022-12-07T06:16:46;98360.34;;;1.83;84.34
72855;BME280;60991;51.278;22.550;2022-12-07T06:18:17;98356.31;;;1.81;84.71
72855;BME280;60991;51.278;22.550;2022-12-07T06:19:47;98354.72;;;1.80;85.33
72855;BME280;60991;51.278;22.550;2022-12-07T06:21:20;98351.91;;;1.81;84.66
72855;BME280;60991;51.278;22.550;2022-12-07T06:22:50;98348.47;;;1.81;84.93
72855;BME280;60991;51.278;22.550;2022-12-07T06:24:20;98349.69;;;1.85;84.53
72855;BME280;60991;51.278;22.550;2022-12-07T06:25:51;98361.91;;;1.91;84.81
72855;BME280;60991;51.278;22.550;2022-12-07T06:27:21;98352.47;;;1.90;84.02
72855;BME280;60991;51.278;22.550;2022-12-07T06:28:51;98353.66;;;1.94;84.30
72855;BME280;60991;51.278;22.550;2022-12-07T06:30:21;98357.50;;;1.91;84.03
72855;BME280;60991;51.278;22.550;2022-12-07T06:31:52;98364.34;;;1.86;84.89
72855;BME280;60991;51.278;22.550;2022-12-07T06:33:22;98359.34;;;1.84;84.28
72855;BME280;60991;51.278;22.550;2022-12-07T06:34:53;98353.88;;;1.86;84.38
72855;BME280;60991;51.278;22.550;2022-12-07T06:36:23;98354.91;;;1.85;84.81
72855;BME280;60991;51.278;22.550;2022-12-07T06:37:53;98359.09;;;1.86;84.11
72855;BME280;60991;51.278;22.550;2022-12-07T06:39:25;98355.13;;;1.83;84.35
72855;BME280;60991;51.278;22.550;2022-12-07T06:40:56;98351.25;;;1.86;84.68
72855;BME280;60991;51.278;22.550;2022-12-07T06:42:26;98362.38;;;1.81;84.90
72855;BME280;60991;51.278;22.550;2022-12-07T06:43:59;98361.34;;;1.82;84.66
72855;BME280;60991;51.278;22.550;2022-12-07T06:45:30;98357.94;;;1.82;84.24
72855;BME280;60991;51.278;22.550;2022-12-07T06:47:00;98357.72;;;1.83;85.01
72855;BME280;60991;51.278;22.550;2022-12-07T06:48:30;98364.75;;;1.89;84.57
72855;BME280;60991;51.278;22.550;2022-12-07T06:50:01;98357.69;;;1.90;84.33
72855;BME280;60991;51.278;22.550;2022-12-07T06:51:32;98352.88;;;1.87;83.99
72855;BME280;60991;51.278;22.550;2022-12-07T06:53:07;98353.66;;;1.87;84.88
72855;BME280;60991;51.278;22.550;2022-12-07T06:54:37;98358.34;;;1.85;84.28
72855;BME280;60991;51.278;22.550;2022-12-07T06:56:08;98354.91;;;1.85;84.40
72855;BME280;60991;51.278;22.550;2022-12-07T06:57:38;98359.50;;;1.89;84.58
72855;BME280;60991;51.278;22.550;2022-12-07T06:59:10;98353.47;;;1.89;83.97
72855;BME280;60991;51.278;22.550;2022-12-07T07:00:41;98355.88;;;1.90;84.31
72855;BME280;60991;51.278;22.550;2022-12-07T07:02:11;98367.34;;;1.89;84.35
72855;BME280;60991;51.278;22.550;2022-12-07T07:03:41;98365.53;;;1.90;84.11
72855;BME280;60991;51.278;22.550;2022-12-07T07:05:12;98362.50;;;1.93;84.35
72855;BME280;60991;51.278;22.550;2022-12-07T07:06:42;98366.34;;;1.97;84.73
72855;BME280;60991;51.278;22.550;2022-12-07T07:08:13;98363.50;;;1.98;84.33
72855;BME280;60991;51.278;22.550;2022-12-07T07:09:43;98363.91;;;1.95;84.64
72855;BME280;60991;51.278;22.550;2022-12-07T07:11:13;98360.72;;;1.93;84.72
72855;BME280;60991;51.278;22.550;2022-12-07T07:12:44;98363.72;;;1.97;83.66
72855;BME280;60991;51.278;22.550;2022-12-07T07:14:14;98351.25;;;1.92;84.34
72855;BME280;60991;51.278;22.550;2022-12-07T07:15:44;98357.28;;;1.93;83.74
72855;BME280;60991;51.278;22.550;2022-12-07T07:17:15;98358.28;;;1.92;83.77
72855;BME280;60991;51.278;22.550;2022-12-07T07:18:45;98354.47;;;1.88;84.20
72855;BME280;60991;51.278;22.550;2022-12-07T07:20:15;98352.47;;;1.90;84.33
72855;BME280;60991;51.278;22.550;2022-12-07T07:21:46;98357.50;;;1.91;84.20
72855;BME280;60991;51.278;22.550;2022-12-07T07:26:37;98359.09;;;1.86;83.93
72855;BME280;60991;51.278;22.550;2022-12-07T07:28:07;98353.31;;;1.84;84.40
72855;BME280;60991;51.278;22.550;2022-12-07T07:41:14;98361.13;;;1.90;84.44
72855;BME280;60991;51.278;22.550;2022-12-07T07:44:24;98361.72;;;1.86;83.91
72855;BME280;60991;51.278;22.550;2022-12-07T07:47:35;98352.50;;;1.77;84.49
72855;BME280;60991;51.278;22.550;2022-12-07T07:54:06;98356.50;;;1.86;84.18
72855;BME280;60991;51.278;22.550;2022-12-07T07:55:36;98359.94;;;1.80;84.70
72855;BME280;60991;51.278;22.550;2022-12-07T07:57:07;98353.13;;;1.79;84.82
72855;BME280;60991;51.278;22.550;2022-12-07T07:58:37;98354.69;;;1.86;84.39
72855;BME280;60991;51.278;22.550;2022-12-07T08:00:10;98365.94;;;1.87;84.35
72855;BME280;60991;51.278;22.550;2022-12-07T08:01:41;98360.75;;;1.80;83.98
72855;BME280;60991;51.278;22.550;2022-12-07T08:03:14;98355.94;;;1.77;84.35
72855;BME280;60991;51.278;22.550;2022-12-07T08:04:45;98362.78;;;1.71;84.54
72855;BME280;60991;51.278;22.550;2022-12-07T08:06:19;98362.38;;;1.74;84.95
72855;BME280;60991;51.278;22.550;2022-12-07T08:07:52;98363.19;;;1.75;85.03
72855;BME280;60991;51.278;22.550;2022-12-07T08:19:24;98356.13;;;1.76;84.76
72855;BME280;60991;51.278;22.550;2022-12-07T08:20:59;98364.59;;;1.78;84.55
72855;BME280;60991;51.278;22.550;2022-12-07T08:22:30;98357.34;;;1.80;84.52
72855;BME280;60991;51.278;22.550;2022-12-07T08:25:41;98357.53;;;1.78;84.99
72855;BME280;60991;51.278;22.550;2022-12-07T08:27:11;98369.00;;;1.77;84.33
72855;BME280;60991;51.278;22.550;2022-12-07T08:30:22;98368.81;;;1.85;84.36
72855;BME280;60991;51.278;22.550;2022-12-07T08:31:52;98370.63;;;1.85;84.11
72855;BME280;60991;51.278;22.550;2022-12-07T08:35:01;98370.41;;;1.80;84.34
72855;BME280;60991;51.278;22.550;2022-12-07T08:36:32;98375.84;;;1.78;84.53
72855;BME280;60991;51.278;22.550;2022-12-07T08:38:03;98372.03;;;1.81;84.50
72855;BME280;60991;51.278;22.550;2022-12-07T08:41:11;98377.63;;;1.91;84.36
72855;BME280;60991;51.278;22.550;2022-12-07T08:48:07;98378.06;;;1.81;84.61
72855;BME280;60991;51.278;22.550;2022-12-07T08:49:41;98369.38;;;1.87;84.59
72855;BME280;60991;51.278;22.550;2022-12-07T08:51:13;98370.19;;;1.88;83.99
72855;BME280;60991;51.278;22.550;2022-12-07T08:52:44;98377.06;;;1.82;83.82
72855;BME280;60991;51.278;22.550;2022-12-07T09:02:35;98362.31;;;1.88;84.18
72855;BME280;60991;51.278;22.550;2022-12-07T09:04:05;98363.34;;;1.87;84.07
72855;BME280;60991;51.278;22.550;2022-12-07T09:05:36;98357.28;;;1.86;84.09
72855;BME280;60991;51.278;22.550;2022-12-07T09:07:06;98360.34;;;1.83;83.92
72855;BME280;60991;51.278;22.550;2022-12-07T09:08:41;98360.56;;;1.75;84.33
72855;BME280;60991;51.278;22.550;2022-12-07T09:18:35;98361.56;;;1.81;84.20
72855;BME280;60991;51.278;22.550;2022-12-07T09:20:06;98353.91;;;1.79;83.81
72855;BME280;60991;51.278;22.550;2022-12-07T09:21:36;98357.94;;;1.75;84.27
72855;BME280;60991;51.278;22.550;2022-12-07T09:24:47;98353.31;;;1.77;84.55
72855;BME280;60991;51.278;22.550;2022-12-07T09:26:18;98348.69;;;1.72;84.45
72855;BME280;60991;51.278;22.550;2022-12-07T09:28:03;98352.72;;;1.68;85.37
72855;BME280;60991;51.278;22.550;2022-12-07T09:29:33;98352.53;;;1.70;85.16
72855;BME280;60991;51.278;22.550;2022-12-07T09:37:48;98344.66;;;1.70;84.78
72855;BME280;60991;51.278;22.550;2022-12-07T09:39:20;98342.47;;;1.73;85.04
72855;BME280;60991;51.278;22.550;2022-12-07T09:42:47;98348.28;;;1.69;84.76
72855;BME280;60991;51.278;22.550;2022-12-07T09:44:23;98345.28;;;1.72;84.81
72855;BME280;60991;51.278;22.550;2022-12-07T09:45:55;98347.88;;;1.72;85.49
72855;BME280;60991;51.278;22.550;2022-12-07T09:47:30;98342.88;;;1.70;85.64
72855;BME280;60991;51.278;22.550;2022-12-07T09:49:01;98348.09;;;1.77;85.08
72855;BME280;60991;51.278;22.550;2022-12-07T09:53:39;98341.44;;;1.74;84.78
72855;BME280;60991;51.278;22.550;2022-12-07T09:55:18;98344.88;;;1.75;85.58